createdAt,value
2018-07-07T00:00:05.574Z,12.87
2018-07-07T00:05:09.151Z,12.87
2018-07-07T00:10:13.162Z,12.77
2018-07-07T00:15:18.813Z,14.23
2018-07-07T00:20:21.851Z,15.07
2018-07-07T00:25:24.988Z,14.30
2018-07-07T00:30:28.024Z,14.77
2018-07-07T00:35:31.030Z,13.23
2018-07-07T00:40:34.143Z,13.63
2018-07-07T00:45:37.211Z,13.63
2018-07-07T00:50:40.175Z,12.47
2018-07-07T00:55:43.200Z,12.63
2018-07-07T01:00:50.975Z,12.67
2018-07-07T01:05:54.130Z,12.70
2018-07-07T01:10:57.700Z,13.37
2018-07-07T01:16:00.715Z,13.90
2018-07-07T01:21:03.744Z,14.77
2018-07-07T01:26:07.134Z,15.07
2018-07-07T01:31:10.315Z,13.47
2018-07-07T01:36:13.351Z,13.90
2018-07-07T01:41:16.404Z,13.20
2018-07-07T01:46:19.417Z,14.60
2018-07-07T01:51:22.499Z,14.43
2018-07-07T01:56:25.573Z,14.57
2018-07-07T02:01:28.568Z,14.27
2018-07-07T02:06:31.571Z,13.87
2018-07-07T02:11:34.526Z,14.93
2018-07-07T02:16:37.646Z,14.00
2018-07-07T02:21:40.667Z,14.60
2018-07-07T02:26:43.645Z,14.10
2018-07-07T02:31:46.714Z,13.10
2018-07-07T02:36:49.700Z,13.70
2018-07-07T02:41:52.791Z,18.00
2018-07-07T02:46:55.802Z,13.83
2018-07-07T02:51:58.783Z,25.60
2018-07-07T02:57:01.819Z,15.30
2018-07-07T03:02:04.880Z,15.57
2018-07-07T03:07:07.956Z,20.10
2018-07-07T03:12:10.971Z,17.37
2018-07-07T03:17:14.061Z,16.27
2018-07-07T03:22:17.024Z,16.60
2018-07-07T03:27:20.027Z,16.50
2018-07-07T03:32:23.024Z,16.30
2018-07-07T03:37:26.012Z,16.53
2018-07-07T03:42:29.069Z,16.23
2018-07-07T03:47:32.068Z,18.37
2018-07-07T03:52:35.084Z,16.50
2018-07-07T03:57:38.052Z,18.33
2018-07-07T04:02:41.016Z,17.73
2018-07-07T04:07:44.142Z,17.43
2018-07-07T04:12:47.154Z,16.37
2018-07-07T04:17:50.276Z,18.53
2018-07-07T04:22:53.419Z,16.23
2018-07-07T04:27:56.424Z,15.40
2018-07-07T04:32:59.388Z,15.47
2018-07-07T04:38:02.431Z,14.70
2018-07-07T04:43:05.699Z,15.97
2018-07-07T04:48:08.690Z,14.97
2018-07-07T04:53:11.636Z,15.67
2018-07-07T04:58:14.621Z,15.80
2018-07-07T05:03:17.639Z,15.37
2018-07-07T05:08:20.655Z,12.77
2018-07-07T05:13:23.634Z,12.73
2018-07-07T05:18:26.651Z,12.43
2018-07-07T05:23:29.649Z,11.17
2018-07-07T05:28:32.704Z,11.30
2018-07-07T05:33:35.716Z,10.37
2018-07-07T05:38:38.760Z,11.60
2018-07-07T05:43:41.752Z,11.27
2018-07-07T05:48:44.772Z,10.20
2018-07-07T05:53:47.823Z,11.90
2018-07-07T05:58:50.799Z,10.90
2018-07-07T06:03:53.801Z,11.20
2018-07-07T06:08:56.844Z,9.80
2018-07-07T06:13:59.775Z,9.77
2018-07-07T06:19:02.885Z,8.77
2018-07-07T06:24:05.948Z,8.20
2018-07-07T06:29:08.957Z,8.40
2018-07-07T06:34:11.973Z,7.10
2018-07-07T06:39:15.338Z,7.17
2018-07-07T06:44:18.348Z,6.90
2018-07-07T06:49:21.333Z,7.40
2018-07-07T06:54:24.361Z,5.70
2018-07-07T06:59:27.337Z,4.70
2018-07-07T07:04:30.463Z,4.00
2018-07-07T07:09:33.433Z,4.30
2018-07-07T07:14:36.407Z,5.23
2018-07-07T07:19:39.484Z,5.23
2018-07-07T07:24:42.515Z,4.93
2018-07-07T07:29:45.488Z,4.73
2018-07-07T07:34:48.469Z,4.70
2018-07-07T07:39:51.423Z,4.10
2018-07-07T07:44:54.458Z,4.50
2018-07-07T07:49:57.472Z,5.30
2018-07-07T07:55:00.506Z,3.77
2018-07-07T08:00:04.080Z,3.53
2018-07-07T08:05:07.195Z,3.83
2018-07-07T08:10:10.207Z,3.70
2018-07-07T08:15:13.243Z,2.97
2018-07-07T08:20:16.398Z,3.50
2018-07-07T08:25:19.381Z,3.20
2018-07-07T08:30:22.398Z,4.00
2018-07-07T08:35:25.436Z,3.53
2018-07-07T08:40:29.063Z,3.80
2018-07-07T08:45:32.148Z,3.60
2018-07-07T08:50:35.189Z,4.13
2018-07-07T08:55:38.375Z,3.67
2018-07-07T09:00:41.401Z,4.53
2018-07-07T09:05:44.428Z,3.43
2018-07-07T09:10:47.514Z,4.63
2018-07-07T09:15:50.544Z,5.10
2018-07-07T09:20:53.759Z,5.90
2018-07-07T09:25:56.760Z,4.43
2018-07-07T09:30:59.956Z,5.30
2018-07-07T09:36:03.060Z,6.37
2018-07-07T09:41:06.104Z,6.40
2018-07-07T09:46:09.331Z,6.73
2018-07-07T09:51:12.365Z,8.17
2018-07-07T09:56:15.426Z,7.47
2018-07-07T10:01:18.427Z,9.03
2018-07-07T10:06:21.430Z,8.30
2018-07-07T10:11:24.444Z,7.67
2018-07-07T10:16:27.447Z,10.70
2018-07-07T10:21:30.528Z,9.40
2018-07-07T10:26:33.581Z,8.20
2018-07-07T10:31:36.611Z,9.77
2018-07-07T10:36:39.736Z,9.00
2018-07-07T10:41:42.745Z,10.30
2018-07-07T10:46:45.867Z,10.30
2018-07-07T10:51:48.836Z,10.60
2018-07-07T10:56:52.013Z,9.67
2018-07-07T11:01:55.825Z,9.03
2018-07-07T11:06:59.009Z,10.60
2018-07-07T11:12:02.107Z,10.17
2018-07-07T11:17:05.451Z,9.50
2018-07-07T11:22:08.459Z,10.00
2018-07-07T11:27:11.487Z,11.10
2018-07-07T11:32:14.499Z,8.23
2018-07-07T11:37:17.465Z,8.40
2018-07-07T11:42:20.588Z,8.50
2018-07-07T11:47:23.590Z,8.00
2018-07-07T11:52:26.877Z,8.20
2018-07-07T11:57:30.894Z,8.10
2018-07-07T12:02:33.910Z,8.90
2018-07-07T12:07:36.950Z,9.00
2018-07-07T12:12:40.003Z,8.50
2018-07-07T12:17:43.035Z,9.60
2018-07-07T12:22:46.074Z,9.17
2018-07-07T12:27:49.083Z,8.77
2018-07-07T12:32:53.092Z,9.13
2018-07-07T12:37:56.265Z,9.33
2018-07-07T12:42:59.396Z,8.27
2018-07-07T12:48:02.475Z,8.60
2018-07-07T12:53:05.596Z,7.80
2018-07-07T12:58:08.633Z,8.90
2018-07-07T13:03:11.591Z,7.90
2018-07-07T13:08:14.628Z,7.70
2018-07-07T13:13:17.660Z,7.27
2018-07-07T13:18:20.669Z,7.90
2018-07-07T13:23:23.751Z,7.73
2018-07-07T13:28:26.828Z,7.40
2018-07-07T13:33:29.941Z,7.13
2018-07-07T13:38:36.747Z,7.40
2018-07-07T13:43:39.900Z,7.10
2018-07-07T13:48:42.959Z,6.80
2018-07-07T13:53:46.291Z,6.97
2018-07-07T13:58:49.909Z,7.57
2018-07-07T14:03:52.984Z,8.10
2018-07-07T14:08:55.989Z,6.83
2018-07-07T14:13:59.010Z,7.53
2018-07-07T14:19:02.035Z,7.40
2018-07-07T14:24:05.086Z,7.03
2018-07-07T14:29:08.316Z,6.63
2018-07-07T14:34:11.328Z,6.73
2018-07-07T14:39:14.724Z,5.83
2018-07-07T14:44:17.755Z,6.40
2018-07-07T14:49:20.808Z,6.10
2018-07-07T14:54:23.972Z,6.77
2018-07-07T14:59:27.183Z,5.07
2018-07-07T15:04:30.213Z,4.93
2018-07-07T15:09:33.480Z,5.70
2018-07-07T15:14:36.484Z,5.03
2018-07-07T15:19:39.695Z,5.37
2018-07-07T15:24:42.747Z,4.87
2018-07-07T15:29:45.903Z,5.10
2018-07-07T15:34:49.222Z,5.30
2018-07-07T15:39:52.261Z,4.80
2018-07-07T15:44:55.438Z,4.60
2018-07-07T15:49:58.373Z,3.23
2018-07-07T15:55:01.433Z,4.20
2018-07-07T16:00:06.208Z,3.90
2018-07-07T16:05:09.308Z,4.73
2018-07-07T16:10:12.435Z,4.00
2018-07-07T16:15:15.723Z,4.00
2018-07-07T16:20:18.923Z,4.30
2018-07-07T16:25:22.020Z,3.40
2018-07-07T16:30:25.226Z,4.20
2018-07-07T16:35:28.137Z,3.70
2018-07-07T16:40:31.290Z,3.37
2018-07-07T16:45:34.417Z,3.63
2018-07-07T16:50:37.601Z,3.37
2018-07-07T16:55:40.675Z,3.43
2018-07-07T17:00:44.444Z,3.90
2018-07-07T17:05:47.448Z,3.60
2018-07-07T17:10:50.803Z,37.23
2018-07-07T17:15:54.099Z,13.70
2018-07-07T17:20:57.105Z,8.10
2018-07-07T17:26:00.249Z,6.97
2018-07-07T17:31:03.859Z,31.13
2018-07-07T17:36:06.983Z,17.50
2018-07-07T17:41:11.137Z,9.10
2018-07-07T17:46:14.564Z,4.97
2018-07-07T17:51:18.690Z,7.20
2018-07-07T17:56:21.924Z,6.30
2018-07-07T18:01:25.677Z,4.40
2018-07-07T18:06:28.757Z,4.20
2018-07-07T18:11:32.025Z,3.30
2018-07-07T18:16:35.098Z,3.80
2018-07-07T18:21:38.172Z,3.20
2018-07-07T18:26:41.505Z,3.57
2018-07-07T18:31:44.608Z,2.97
2018-07-07T18:36:47.794Z,3.13
2018-07-07T18:41:50.919Z,3.13
2018-07-07T18:46:53.959Z,2.90
2018-07-07T18:51:57.349Z,2.60
2018-07-07T18:57:00.408Z,6.20
2018-07-07T19:02:03.634Z,4.60
2018-07-07T19:07:06.660Z,3.30
2018-07-07T19:12:09.823Z,3.50
2018-07-07T19:17:13.345Z,3.47
2018-07-07T19:22:22.147Z,4.60
2018-07-07T19:27:25.220Z,3.17
2018-07-07T19:32:34.151Z,3.60
2018-07-07T19:37:37.372Z,3.17
2018-07-07T19:42:40.402Z,3.40
2018-07-07T19:47:43.468Z,3.13
2018-07-07T19:52:46.508Z,3.40
2018-07-07T19:57:49.826Z,3.27
2018-07-07T20:02:52.863Z,3.83
2018-07-07T20:07:56.015Z,3.17
2018-07-07T20:12:59.358Z,4.00
2018-07-07T20:18:06.756Z,3.63
2018-07-07T20:23:12.307Z,3.40
2018-07-07T20:28:20.973Z,3.17
2018-07-07T20:33:24.447Z,3.97
2018-07-07T20:38:27.685Z,3.50
2018-07-07T20:43:30.736Z,4.03
2018-07-07T20:48:33.923Z,4.77
2018-07-07T20:53:36.927Z,4.70
2018-07-07T20:58:39.980Z,6.47
2018-07-07T21:03:43.037Z,4.10
2018-07-07T21:08:46.090Z,3.80
2018-07-07T21:13:49.253Z,4.00
2018-07-07T21:18:52.799Z,4.10
2018-07-07T21:23:56.835Z,4.37
2018-07-07T21:29:00.057Z,4.10
2018-07-07T21:34:03.283Z,3.57
2018-07-07T21:39:06.392Z,3.77
2018-07-07T21:44:09.653Z,4.13
2018-07-07T21:49:12.864Z,4.47
2018-07-07T21:54:15.946Z,3.90
2018-07-07T21:59:19.019Z,3.93
2018-07-07T22:04:28.769Z,3.57
2018-07-07T22:09:32.904Z,3.93
2018-07-07T22:14:36.166Z,3.77
2018-07-07T22:19:39.215Z,3.77
2018-07-07T22:24:42.995Z,4.10
2018-07-07T22:29:45.933Z,4.10
2018-07-07T22:34:49.057Z,3.97
2018-07-07T22:39:52.064Z,3.60
2018-07-07T22:44:55.040Z,4.30
2018-07-07T22:49:58.042Z,4.40
2018-07-07T22:55:01.357Z,4.40
2018-07-07T23:00:04.872Z,4.13
2018-07-07T23:05:07.946Z,4.77
2018-07-07T23:10:11.181Z,4.10
2018-07-07T23:15:14.204Z,6.17
2018-07-07T23:20:17.300Z,4.03
2018-07-07T23:25:20.309Z,4.10
2018-07-07T23:30:23.333Z,4.07
2018-07-07T23:35:26.379Z,4.37
2018-07-07T23:40:29.621Z,4.40
2018-07-07T23:45:32.727Z,4.00
2018-07-07T23:50:35.736Z,4.90
2018-07-07T23:55:39.160Z,4.37
